Time;durP1;ratioP1;P1;durP2;ratioP2;P2;SDS_P1;SDS_P2;PMS_P1;PMS_P2;Temp;Humidity;BMP_temperature;BMP_pressure;BME280_temperature;BME280_humidity;BME280_pressure;Samples;Min_cycle;Max_cycle;Signal;HPM_P1;HPM_P2
2023/10/16 00:00:30;;;;;;;1.67;1.13;;;;;;;16.12;59.84;102376.78;5069276;28;20040;-56
2023/10/16 00:03:02;;;;;;;1.70;1.25;;;;;;;16.11;59.92;102372.38;5067202;28;20032;-56
2023/10/16 00:05:35;;;;;;;1.13;1.02;;;;;;;16.11;59.67;102377.75;5064788;28;20041;-56
2023/10/16 00:08:05;;;;;;;1.23;1.10;;;;;;;16.10;60.02;102368.81;5068316;28;20499;-56
2023/10/16 00:10:32;;;;;;;0.88;0.88;;;;;;;16.10;59.96;102370.63;5065909;28;20033;-56
2023/10/16 00:13:04;;;;;;;1.83;1.30;;;;;;;16.08;59.83;102372.56;5065710;28;20382;-56
2023/10/16 00:15:30;;;;;;;1.92;1.17;;;;;;;16.07;59.77;102371.72;5061290;28;20042;-56
2023/10/16 00:17:57;;;;;;;2.08;1.23;;;;;;;16.07;59.75;102370.81;5067619;28;20043;-56
2023/10/16 00:20:26;;;;;;;1.83;1.15;;;;;;;16.06;59.63;102369.97;5068988;28;20032;-56
2023/10/16 00:22:51;;;;;;;1.45;1.23;;;;;;;16.07;59.72;102368.13;5068538;28;20501;-56
2023/10/16 00:25:18;;;;;;;1.83;1.15;;;;;;;16.06;59.67;102371.78;5068132;28;20028;-56
2023/10/16 00:27:44;;;;;;;1.45;1.35;;;;;;;16.05;59.87;102368.25;5079027;28;20036;-56
2023/10/16 00:30:09;;;;;;;1.08;1.00;;;;;;;16.04;59.97;102366.50;5070255;28;20497;-56
2023/10/16 00:32:38;;;;;;;1.33;1.10;;;;;;;16.02;60.07;102363.91;5068623;28;20037;-56
2023/10/16 00:35:04;;;;;;;1.08;0.98;;;;;;;16.02;59.65;102363.91;5071868;28;20039;-56
2023/10/16 00:37:33;;;;;;;1.23;1.10;;;;;;;16.01;59.90;102356.84;5069935;28;20391;-56
2023/10/16 00:39:58;;;;;;;1.55;1.00;;;;;;;16.01;59.75;102359.53;5072974;28;20099;-56
2023/10/16 00:42:24;;;;;;;1.20;1.00;;;;;;;16.00;59.88;102357.78;5072739;28;20182;-56
2023/10/16 00:44:56;;;;;;;1.60;1.02;;;;;;;16.01;59.67;102361.31;5068437;28;20028;-56
2023/10/16 00:47:22;;;;;;;1.38;0.90;;;;;;;16.00;59.66;102360.47;5070893;28;20113;-56
2023/10/16 00:49:49;;;;;;;1.05;0.80;;;;;;;16.00;59.66;102363.16;5071780;28;20086;-56
2023/10/16 00:52:15;;;;;;;1.60;1.27;;;;;;;15.99;59.73;102364.13;5075543;28;20082;-56
2023/10/16 00:54:41;;;;;;;1.27;1.00;;;;;;;15.99;59.74;102358.75;5068988;28;20364;-56
2023/10/16 00:57:08;;;;;;;2.13;1.20;;;;;;;15.98;59.87;102359.69;5068522;28;20056;-56
2023/10/16 00:59:39;;;;;;;1.08;0.98;;;;;;;15.98;59.75;102359.69;5068912;28;20090;-56
2023/10/16 01:02:14;;;;;;;1.20;1.08;;;;;;;15.99;59.85;102363.25;5066902;28;20393;-56
2023/10/16 01:04:43;;;;;;;1.00;1.00;;;;;;;15.98;59.88;102361.53;5071846;28;20039;-56
2023/10/16 01:07:14;;;;;;;1.50;1.00;;;;;;;15.97;59.80;102358.00;5068131;28;20048;-56
2023/10/16 01:09:40;;;;;;;0.75;0.75;;;;;;;15.98;59.51;102362.38;5063292;28;20029;-56
2023/10/16 01:12:06;;;;;;;1.00;1.00;;;;;;;15.96;59.74;102367.00;5075546;28;20082;-56
2023/10/16 01:14:33;;;;;;;1.25;0.95;;;;;;;15.95;60.00;102354.50;5068319;28;20033;-56
2023/10/16 01:16:58;;;;;;;2.45;1.02;;;;;;;15.94;59.74;102352.78;5067706;28;20116;-56
2023/10/16 01:19:24;;;;;;;1.75;1.10;;;;;;;15.94;59.84;102344.75;5068526;28;20099;-56
2023/10/16 01:21:50;;;;;;;1.45;0.90;;;;;;;15.94;59.54;102344.75;5068954;28;20077;-56
2023/10/16 01:24:16;;;;;;;0.88;0.88;;;;;;;15.94;59.61;102342.06;5067131;28;20466;-56
2023/10/16 01:26:42;;;;;;;1.70;0.90;;;;;;;15.94;59.60;102336.69;5067055;28;20047;-56
2023/10/16 01:29:09;;;;;;;1.17;1.08;;;;;;;15.93;59.89;102339.47;5066789;28;20042;-56
2023/10/16 01:31:38;;;;;;;0.73;0.70;;;;;;;15.93;59.82;102339.47;5067159;28;20037;-56
2023/10/16 01:34:10;;;;;;;1.35;0.95;;;;;;;15.92;59.73;102335.06;5066774;28;20032;-56
2023/10/16 01:36:36;;;;;;;1.77;1.00;;;;;;;15.92;59.77;102338.59;5060109;28;20423;-56
2023/10/16 01:39:07;;;;;;;1.45;1.02;;;;;;;15.92;59.78;102340.44;5066516;28;20061;-56
2023/10/16 01:41:32;;;;;;;1.67;1.08;;;;;;;15.93;59.64;102342.13;5065962;28;20513;-56
2023/10/16 01:43:59;;;;;;;1.08;1.02;;;;;;;15.90;59.32;102337.84;5067288;28;20024;-56
2023/10/16 01:46:24;;;;;;;1.00;0.90;;;;;;;15.90;59.59;102343.22;5067151;28;20044;-56
2023/10/16 01:48:49;;;;;;;0.85;0.80;;;;;;;15.90;59.54;102335.16;5065963;28;20029;-56
2023/10/16 01:51:19;;;;;;;1.20;1.10;;;;;;;15.89;59.74;102329.88;5071022;28;20040;-56
2023/10/16 01:53:47;;;;;;;1.50;0.82;;;;;;;15.89;59.78;102330.72;5072843;28;20034;-56
2023/10/16 01:56:13;;;;;;;1.35;1.08;;;;;;;15.88;59.48;102329.00;5061453;28;20171;-56
2023/10/16 01:58:44;;;;;;;2.35;1.20;;;;;;;15.88;59.67;102323.66;5067140;28;20036;-56
2023/10/16 02:01:17;;;;;;;0.77;0.77;;;;;;;15.89;59.74;102332.56;5067113;28;20045;-56
2023/10/16 02:03:44;;;;;;;0.85;0.85;;;;;;;15.89;59.66;102329.88;5069859;28;20135;-56
2023/10/16 02:06:13;;;;;;;1.02;0.93;;;;;;;15.87;59.42;102329.97;5063813;28;20058;-56
2023/10/16 02:08:40;;;;;;;1.58;0.90;;;;;;;15.87;59.61;102324.59;5062009;28;20035;-56
2023/10/16 02:11:06;;;;;;;1.08;0.95;;;;;;;15.87;59.49;102326.41;5067003;28;20056;-56
2023/10/16 02:13:35;;;;;;;1.05;0.93;;;;;;;15.86;59.63;102317.50;5070247;28;20036;-56
2023/10/16 02:16:02;;;;;;;1.65;1.05;;;;;;;15.86;59.34;102313.94;5068533;28;20020;-56
2023/10/16 02:18:36;;;;;;;1.60;1.10;;;;;;;15.86;59.54;102316.63;5065355;28;20036;-56
2023/10/16 02:21:02;;;;;;;1.38;1.00;;;;;;;15.85;59.51;102320.28;5066926;28;20046;-56
2023/10/16 02:23:30;;;;;;;1.95;1.10;;;;;;;15.85;59.50;102317.59;5063334;28;20032;-56
2023/10/16 02:25:59;;;;;;;0.82;0.82;;;;;;;15.85;59.36;102320.28;5066332;28;20036;-56
2023/10/16 02:28:25;;;;;;;0.98;0.95;;;;;;;15.83;59.33;102315.84;5067871;28;20032;-56
2023/10/16 02:30:51;;;;;;;0.70;0.70;;;;;;;15.85;59.62;102314.91;5064077;28;20090;-56
2023/10/16 02:33:26;;;;;;;0.98;0.88;;;;;;;15.83;59.60;102312.31;5067228;28;20047;-56
2023/10/16 02:35:53;;;;;;;1.52;0.90;;;;;;;15.83;59.57;102312.31;5067251;28;20032;-56
2023/10/16 02:38:27;;;;;;;1.23;1.15;;;;;;;15.82;59.70;102315.94;5065348;28;20036;-56
2023/10/16 02:40:54;;;;;;;1.23;0.90;;;;;;;15.83;59.44;102315.00;5068419;28;20121;-56
2023/10/16 02:43:23;;;;;;;1.02;0.90;;;;;;;15.82;59.59;102307.88;5067163;28;20036;-56
2023/10/16 02:45:52;;;;;;;1.35;1.10;;;;;;;15.82;59.43;102311.47;5067756;28;20047;-56
2023/10/16 02:48:21;;;;;;;1.10;0.80;;;;;;;15.81;59.58;102308.88;5068496;28;20029;-56
2023/10/16 02:50:54;;;;;;;1.42;0.90;;;;;;;15.80;59.31;102308.00;5076500;28;20048;-56
2023/10/16 02:53:25;;;;;;;1.17;1.08;;;;;;;15.80;59.29;102308.00;5061178;28;20426;-56
2023/10/16 02:55:59;;;;;;;1.10;1.00;;;;;;;15.81;59.38;102300.81;5067031;28;20067;-56
2023/10/16 02:58:26;;;;;;;0.90;0.70;;;;;;;15.80;59.18;102296.38;5067520;28;20042;-56
2023/10/16 03:01:06;;;;;;;1.08;0.98;;;;;;;15.79;59.28;102306.28;5066291;28;20033;-56
2023/10/16 03:03:32;;;;;;;1.05;1.00;;;;;;;15.79;59.30;102302.72;5063399;28;20068;-56
2023/10/16 03:05:59;;;;;;;1.15;1.00;;;;;;;15.79;59.39;102305.41;5070033;28;20067;-56
2023/10/16 03:08:30;;;;;;;2.03;0.98;;;;;;;15.79;59.15;102294.66;5072223;28;20379;-56
2023/10/16 03:11:04;;;;;;;1.17;1.08;;;;;;;15.78;59.44;102301.88;5066813;28;20135;-56
2023/10/16 03:13:35;;;;;;;1.10;1.00;;;;;;;15.78;59.21;102303.66;5068874;28;20055;-56
2023/10/16 03:18:47;;;;;;;1.20;1.10;;;;;;;15.77;59.11;102304.66;5065843;28;20823;-56
2023/10/16 03:23:44;;;;;;;0.90;0.90;;;;;;;15.76;59.38;102305.59;5068380;28;20478;-56
2023/10/16 03:26:25;;;;;;;1.25;0.98;;;;;;;15.76;59.36;102302.91;5072984;28;20028;-56
2023/10/16 03:29:00;;;;;;;1.10;1.10;;;;;;;15.75;59.25;102304.75;5066722;28;20394;-56
2023/10/16 03:31:27;;;;;;;1.45;1.30;;;;;;;15.75;59.16;102307.44;5065653;28;20592;-56
2023/10/16 03:33:54;;;;;;;1.55;0.80;;;;;;;15.75;59.07;102295.81;5067773;28;20390;-56
2023/10/16 03:36:19;;;;;;;1.27;1.10;;;;;;;15.74;59.11;102302.16;5064656;28;20033;-56
2023/10/16 03:38:45;;;;;;;1.27;1.10;;;;;;;15.74;59.09;102303.00;5065420;28;20083;-56
2023/10/16 03:43:56;;;;;;;1.13;1.02;;;;;;;15.73;59.32;102303.09;5065469;28;20041;-56
2023/10/16 03:46:23;;;;;;;0.88;0.88;;;;;;;15.73;59.44;102289.66;5069407;28;20605;-56
2023/10/16 03:48:48;;;;;;;1.38;0.90;;;;;;;15.72;59.15;102294.16;5064206;28;20045;-56
2023/10/16 03:51:16;;;;;;;1.92;0.90;;;;;;;15.72;59.12;102294.16;5075768;28;20487;-56
2023/10/16 03:53:43;;;;;;;1.27;1.00;;;;;;;15.72;59.29;102293.28;5064862;28;20029;-56
2023/10/16 03:56:09;;;;;;;1.20;0.90;;;;;;;15.72;59.22;102295.97;5074619;28;20048;-56
2023/10/16 03:58:41;;;;;;;1.75;1.00;;;;;;;15.71;59.05;102291.59;5084089;28;20559;-56
2023/10/16 04:01:10;;;;;;;1.38;1.27;;;;;;;15.72;59.40;102295.97;5065671;28;20145;-56
2023/10/16 04:03:49;;;;;;;1.88;1.08;;;;;;;15.71;58.95;102294.25;5065360;28;20036;-56
2023/10/16 04:06:19;;;;;;;1.50;1.17;;;;;;;15.71;59.02;102296.94;5069321;28;20497;-56
2023/10/16 04:08:45;;;;;;;1.70;0.90;;;;;;;15.71;59.13;102296.94;5072602;28;20045;-56
2023/10/16 04:11:12;;;;;;;0.95;0.90;;;;;;;15.69;59.25;102288.97;5067908;28;20032;-56
2023/10/16 04:13:45;;;;;;;0.68;0.68;;;;;;;15.68;59.23;102289.94;5064323;28;20040;-56
2023/10/16 04:16:13;;;;;;;1.20;1.10;;;;;;;15.69;59.03;102293.47;5065023;28;20040;-56
2023/10/16 04:18:39;;;;;;;1.20;1.05;;;;;;;15.69;59.18;102293.47;5059921;28;20043;-56
2023/10/16 04:26:29;;;;;;;1.20;1.10;;;;;;;15.67;59.03;102277.47;5063701;28;20045;-56
2023/10/16 04:32:07;;;;;;;1.67;1.00;;;;;;;15.66;59.21;102277.56;5067590;28;20537;-56
2023/10/16 04:34:34;;;;;;;1.77;0.95;;;;;;;15.66;58.91;102278.41;5062792;28;20029;-56
2023/10/16 04:50:49;;;;;;;0.90;0.82;;;;;;;15.63;59.06;102268.75;5069295;28;20111;-56
2023/10/16 04:53:12;;;;;;;1.10;1.00;;;;;;;15.63;59.08;102267.88;5067168;28;20036;-56
2023/10/16 06:14:09;;;;;;;0.95;0.88;;;;;;;15.59;58.80;102245.75;5063239;28;20047;-56
2023/10/16 06:14:17;;;;;;;1.05;0.95;;;;;;;15.51;58.45;102256.06;5066524;28;20128;-56
2023/10/16 06:16:50;;;;;;;1.08;1.00;;;;;;;15.52;58.69;102255.13;5066185;28;20112;-56
2023/10/16 06:19:18;;;;;;;0.88;0.88;;;;;;;15.51;58.62;102258.75;5070719;28;20038;-56
2023/10/16 06:21:48;;;;;;;1.30;1.02;;;;;;;15.51;58.70;102257.91;5072127;28;20044;-56
2023/10/16 06:24:38;;;;;;;1.60;1.27;;;;;;;15.51;58.80;102255.22;5074158;28;20032;-56
2023/10/16 06:27:09;;;;;;;1.30;1.00;;;;;;;15.51;58.67;102257.91;5069021;28;20024;-56
2023/10/16 06:29:35;;;;;;;1.73;1.30;;;;;;;15.50;58.63;102259.75;5069400;28;20063;-56
2023/10/16 06:32:07;;;;;;;1.67;1.20;;;;;;;15.49;58.82;102258.00;5073883;28;20768;-56
2023/10/16 06:34:38;;;;;;;1.25;1.15;;;;;;;15.50;58.62;102261.53;5061699;28;20032;-56
2023/10/16 06:37:06;;;;;;;1.30;1.15;;;;;;;15.49;58.61;102255.31;5067300;28;20078;-56
2023/10/16 06:39:35;;;;;;;1.13;1.02;;;;;;;15.49;58.63;102259.81;5067686;28;20383;-56
2023/10/16 06:42:05;;;;;;;1.25;0.90;;;;;;;15.49;58.69;102263.38;5066817;28;20115;-56
2023/10/16 06:44:33;;;;;;;1.15;1.05;;;;;;;15.48;58.41;102258.09;5070285;28;20406;-56
2023/10/16 06:47:00;;;;;;;1.15;1.05;;;;;;;15.47;58.54;102256.38;5071717;28;20083;-54
2023/10/16 06:49:36;;;;;;;1.10;1.00;;;;;;;15.49;58.54;102265.19;5064347;28;20543;-56
2023/10/16 06:52:05;;;;;;;2.08;1.20;;;;;;;15.48;58.90;102261.66;5070842;28;20499;-56
2023/10/16 06:54:37;;;;;;;1.40;1.02;;;;;;;15.49;58.67;102263.38;5069956;28;20532;-57
2023/10/16 06:57:12;;;;;;;1.40;1.30;;;;;;;15.49;58.52;102259.81;5072009;28;20099;-57
2023/10/16 06:59:41;;;;;;;1.70;1.33;;;;;;;15.49;58.62;102259.81;5070469;28;20081;-56
2023/10/16 07:02:15;;;;;;;1.23;0.95;;;;;;;15.47;58.53;102257.22;5065510;28;20036;-56
2023/10/16 07:04:42;;;;;;;1.42;1.33;;;;;;;15.45;58.60;102257.31;5075543;28;20021;-56
2023/10/16 07:07:14;;;;;;;1.30;1.20;;;;;;;15.46;58.58;102263.56;5072889;28;20365;-57
2023/10/16 07:09:54;;;;;;;2.25;1.17;;;;;;;15.46;58.57;102258.22;5074398;28;20044;-56
2023/10/16 07:12:19;;;;;;;1.13;1.02;;;;;;;15.45;58.60;102256.47;5074313;28;20040;-56
2023/10/16 07:15:05;;;;;;;2.13;1.33;;;;;;;15.45;58.40;102256.47;5067187;28;20150;-56
2023/10/16 07:17:30;;;;;;;1.25;1.10;;;;;;;15.46;58.23;102260.88;5066505;28;20025;-56
2023/10/16 07:19:59;;;;;;;1.38;1.00;;;;;;;15.45;58.40;102265.38;5064702;28;20041;-56
2023/10/16 07:22:34;;;;;;;1.30;1.10;;;;;;;15.45;58.40;102272.56;5068399;28;20024;-56
2023/10/16 07:25:23;;;;;;;1.35;1.25;;;;;;;15.44;58.25;102269.03;5064430;28;20071;-57
2023/10/16 07:27:49;;;;;;;0.85;0.85;;;;;;;15.43;58.26;102264.59;5062573;28;20047;-56
2023/10/16 07:30:23;;;;;;;1.80;1.20;;;;;;;15.45;58.20;102264.53;5065301;28;20036;-56
2023/10/16 07:32:52;;;;;;;0.95;0.95;;;;;;;15.43;58.26;102271.81;5065043;28;20028;-57
2023/10/16 07:35:19;;;;;;;1.20;1.10;;;;;;;15.43;58.11;102259.25;5066265;28;20754;-57
2023/10/16 07:37:48;;;;;;;1.15;1.05;;;;;;;15.44;58.05;102268.19;5064647;28;20459;-56
2023/10/16 07:40:20;;;;;;;1.00;1.00;;;;;;;15.42;58.25;102265.59;5065710;28;20162;-56
2023/10/16 07:42:46;;;;;;;1.23;1.10;;;;;;;15.44;58.32;102265.50;5065939;28;20043;-57
2023/10/16 07:45:12;;;;;;;1.00;0.90;;;;;;;15.43;58.27;102267.28;5067152;28;20387;-56
2023/10/16 07:47:37;;;;;;;2.40;0.98;;;;;;;15.43;58.08;102267.28;5068441;28;20032;-56
2023/10/16 07:50:04;;;;;;;1.70;1.13;;;;;;;15.44;58.46;102262.81;5070871;28;20039;-56
2023/10/16 07:52:30;;;;;;;1.30;1.20;;;;;;;15.42;58.19;102251.28;5070545;28;20024;-56
2023/10/16 07:54:55;;;;;;;1.63;0.95;;;;;;;15.43;58.15;102250.34;5069903;28;20037;-56
2023/10/16 07:57:23;;;;;;;1.45;1.10;;;;;;;15.42;58.07;102254.84;5069001;28;20053;-56
2023/10/16 07:59:54;;;;;;;1.17;1.08;;;;;;;15.42;58.32;102259.31;5069449;28;20033;-56
2023/10/16 08:02:20;;;;;;;1.48;1.38;;;;;;;15.42;58.32;102262.91;5069883;28;20368;-56
2023/10/16 08:04:51;;;;;;;1.08;1.08;;;;;;;15.42;58.21;102259.31;5069943;28;20111;-57
2023/10/16 08:07:18;;;;;;;1.17;1.05;;;;;;;15.42;58.13;102262.91;5067162;28;20024;-56
2023/10/16 08:12:18;;;;;;;1.02;1.00;;;;;;;15.41;58.14;102252.25;5068920;28;20040;-56
2023/10/16 08:14:44;;;;;;;1.23;1.13;;;;;;;15.41;58.28;102247.72;5064627;28;20060;-56
2023/10/16 08:17:16;;;;;;;1.20;1.10;;;;;;;15.41;58.08;102254.94;5067454;28;20104;-57
2023/10/16 08:19:45;;;;;;;1.55;0.98;;;;;;;15.41;58.35;102257.63;5066686;28;20032;-57
2023/10/16 08:22:13;;;;;;;1.20;1.10;;;;;;;15.41;58.17;102260.31;5064659;28;20043;-57
2023/10/16 08:24:58;;;;;;;1.10;1.00;;;;;;;15.40;58.15;102258.56;5065773;28;20505;-57
2023/10/16 08:30:18;;;;;;;1.98;1.23;;;;;;;15.41;58.27;102263.00;5057017;28;20139;-56
2023/10/16 08:35:19;;;;;;;0.90;0.90;;;;;;;15.40;58.29;102264.81;5062362;28;20040;-56
2023/10/16 08:37:55;;;;;;;1.58;1.10;;;;;;;15.41;58.21;102268.34;5065477;28;20472;-56
2023/10/16 08:40:23;;;;;;;1.10;1.00;;;;;;;15.40;58.38;102259.44;5068103;28;20051;-56
2023/10/16 08:43:00;;;;;;;2.05;1.40;;;;;;;15.39;58.17;102259.53;5068193;28;20036;-56
2023/10/16 08:45:27;;;;;;;1.25;0.90;;;;;;;15.40;58.09;102256.75;5066888;28;20041;-56
2023/10/16 08:47:54;;;;;;;1.15;1.08;;;;;;;15.39;58.03;102254.16;5066113;28;20060;-56
2023/10/16 08:50:21;;;;;;;1.02;0.93;;;;;;;15.39;58.29;102246.13;5070095;28;20466;-57
2023/10/16 08:52:50;;;;;;;1.00;0.90;;;;;;;15.40;58.37;102250.50;5064955;28;20040;-57
2023/10/16 08:55:16;;;;;;;1.05;0.95;;;;;;;15.40;58.21;102253.19;5067667;28;20051;-56
2023/10/16 08:57:45;;;;;;;0.98;0.95;;;;;;;15.40;58.29;102250.50;5066824;28;20068;-57
2023/10/16 09:00:19;;;;;;;1.85;1.17;;;;;;;15.40;58.28;102250.50;5066738;28;20043;-56
2023/10/16 09:02:47;;;;;;;1.08;0.98;;;;;;;15.39;58.34;102252.34;5067895;28;20112;-57
2023/10/16 09:05:16;;;;;;;1.20;1.10;;;;;;;15.40;58.09;102253.19;5066504;28;20078;-56
2023/10/16 09:07:41;;;;;;;1.08;1.08;;;;;;;15.40;58.29;102254.09;5063972;28;20029;-56
2023/10/16 09:10:10;;;;;;;0.82;0.80;;;;;;;15.40;58.31;102258.56;5069294;28;20086;-56
2023/10/16 09:12:44;;;;;;;1.10;1.00;;;;;;;15.39;58.23;102256.84;5068648;28;20028;-56
2023/10/16 09:15:14;;;;;;;0.80;0.80;;;;;;;15.38;58.37;102264.06;5070701;28;20039;-56
2023/10/16 09:17:39;;;;;;;1.05;0.95;;;;;;;15.39;58.25;102259.53;5071551;28;20090;-56
2023/10/16 09:20:14;;;;;;;2.17;1.42;;;;;;;15.40;58.25;102255.88;5065459;28;20036;-56
2023/10/16 09:22:48;;;;;;;1.27;1.17;;;;;;;15.40;58.35;102262.13;5067880;28;20036;-56
2023/10/16 09:25:15;;;;;;;1.98;0.90;;;;;;;15.38;58.37;102269.41;5064099;28;20494;-57
2023/10/16 09:27:49;;;;;;;1.15;0.93;;;;;;;15.39;58.16;102263.06;5074396;28;20093;-57
2023/10/16 09:30:15;;;;;;;1.20;1.10;;;;;;;15.40;58.34;102274.66;5070160;28;20037;-57
2023/10/16 09:32:41;;;;;;;0.88;0.88;;;;;;;15.39;58.13;102260.38;5064521;28;20486;-57
2023/10/16 09:35:12;;;;;;;1.95;1.15;;;;;;;15.39;57.85;102259.53;5069152;28;20117;-57
2023/10/16 09:37:41;;;;;;;1.38;1.27;;;;;;;15.39;58.22;102255.03;5068956;28;20130;-57
2023/10/16 09:40:35;;;;;;;0.70;0.70;;;;;;;15.40;58.48;102256.75;5070565;28;20032;-57
2023/10/16 09:43:09;;;;;;;0.95;0.90;;;;;;;15.39;58.21;102263.06;5068892;28;20102;-57
2023/10/16 09:45:36;;;;;;;1.20;1.10;;;;;;;15.40;58.14;102261.25;5066322;28;20492;-57
2023/10/16 09:48:08;;;;;;;1.10;1.00;;;;;;;15.40;58.39;102261.25;5065411;28;20340;-57
2023/10/16 09:50:37;;;;;;;1.35;0.95;;;;;;;15.40;58.22;102262.13;5066631;28;20061;-57
2023/10/16 09:53:06;;;;;;;1.25;0.80;;;;;;;15.40;58.38;102258.56;5066486;28;20032;-57
2023/10/16 09:55:39;;;;;;;0.93;0.93;;;;;;;15.41;58.40;102263.00;5067072;28;20041;-57
2023/10/16 09:58:08;;;;;;;0.82;0.80;;;;;;;15.40;58.64;102250.50;5069596;28;20044;-57
2023/10/16 10:00:38;;;;;;;0.98;0.90;;;;;;;15.42;58.40;102254.84;5066092;28;20043;-57
2023/10/16 10:03:05;;;;;;;0.88;0.88;;;;;;;15.41;58.37;102252.25;5065936;28;20036;-57
2023/10/16 10:11:37;;;;;;;0.98;0.90;;;;;;;15.42;58.48;102262.91;5065790;28;20038;-57
2023/10/16 10:14:20;;;;;;;2.03;1.00;;;;;;;15.42;58.69;102256.66;5067205;28;20423;-57
2023/10/16 10:16:48;;;;;;;1.50;1.10;;;;;;;15.42;58.72;102249.47;5067372;28;20437;-57
2023/10/16 10:19:24;;;;;;;1.85;1.10;;;;;;;15.42;58.94;102252.16;5068528;28;20031;-57
2023/10/16 10:21:53;;;;;;;0.93;0.88;;;;;;;15.42;58.73;102254.84;5067750;28;20068;-57
2023/10/16 10:24:21;;;;;;;1.42;1.00;;;;;;;15.42;58.77;102249.47;5066229;28;20025;-56
2023/10/16 10:26:52;;;;;;;1.42;1.00;;;;;;;15.42;58.47;102248.59;5068531;28;20029;-57
2023/10/16 10:29:20;;;;;;;;;;;;;;;15.51;58.67;102255.22;5067421;28;20056;-57
2023/10/16 10:31:50;;;;;;;1.10;1.00;;;;;;;15.44;58.45;102252.06;5065600;28;19920;-57
2023/10/16 10:34:24;;;;;;;1.02;1.02;;;;;;;15.44;58.67;102246.69;5065284;28;20043;-56
2023/10/16 10:36:50;;;;;;;1.27;1.10;;;;;;;15.43;58.48;102244.97;5064706;28;20497;-57
2023/10/16 10:39:21;;;;;;;1.10;1.00;;;;;;;15.43;58.88;102251.19;5064751;28;20469;-57
2023/10/16 10:41:54;;;;;;;0.98;0.88;;;;;;;15.43;58.66;102242.28;5064479;28;20577;-57
2023/10/16 10:44:28;;;;;;;1.10;0.82;;;;;;;15.43;58.65;102244.97;5064729;28;20448;-57
2023/10/16 10:46:54;;;;;;;1.00;0.90;;;;;;;15.42;58.76;102244.09;5066837;28;20031;-57
2023/10/16 10:49:35;;;;;;;1.52;0.85;;;;;;;15.43;58.71;102243.13;5066332;28;20033;-57
2023/10/16 10:52:01;;;;;;;0.90;0.90;;;;;;;15.44;58.71;102246.69;5067334;28;20102;-57
2023/10/16 10:54:27;;;;;;;1.25;0.90;;;;;;;15.42;58.87;102236.06;5067240;28;20043;-57
2023/10/16 10:56:59;;;;;;;1.95;1.05;;;;;;;15.43;58.78;102236.91;5068041;28;20136;-57
2023/10/16 10:59:39;;;;;;;1.67;0.90;;;;;;;15.45;58.71;102230.47;5068413;28;20608;-57
2023/10/16 11:04:54;;;;;;;0.80;0.80;;;;;;;15.45;58.89;102226.94;5058879;28;20044;-57
2023/10/16 11:07:39;;;;;;;0.80;0.80;;;;;;;15.44;58.81;102226.09;5066376;28;20036;-57
2023/10/16 11:10:05;;;;;;;1.38;0.90;;;;;;;15.44;58.72;102222.53;5067888;28;20025;-57
2023/10/16 11:12:32;;;;;;;0.75;0.75;;;;;;;15.45;58.64;102216.22;5066994;28;20048;-56
2023/10/16 11:14:57;;;;;;;0.68;0.68;;;;;;;15.45;58.87;102218.88;5066050;28;20032;-57
2023/10/16 11:17:30;;;;;;;1.10;1.00;;;;;;;15.47;58.80;102218.78;5065801;28;20116;-57
2023/10/16 11:19:56;;;;;;;0.90;0.90;;;;;;;15.47;58.98;102214.28;5065648;28;20025;-57
2023/10/16 11:22:27;;;;;;;1.02;0.90;;;;;;;15.46;58.83;102209.88;5066018;28;20041;-57
2023/10/16 11:24:53;;;;;;;0.80;0.80;;;;;;;15.48;58.82;102215.13;5066517;28;20021;-57
2023/10/16 11:27:19;;;;;;;0.88;0.80;;;;;;;15.48;58.88;102204.41;5066819;28;20029;-57
2023/10/16 11:29:46;;;;;;;0.80;0.77;;;;;;;15.48;59.03;102215.13;5067356;28;20119;-57
2023/10/16 11:32:18;;;;;;;0.77;0.77;;;;;;;15.48;58.81;102213.34;5067102;28;20035;-57
2023/10/16 11:34:45;;;;;;;0.77;0.65;;;;;;;15.48;58.78;102210.66;5067529;28;20032;-57
2023/10/16 11:37:12;;;;;;;1.30;0.80;;;;;;;15.48;59.04;102207.97;5067056;28;20032;-57
2023/10/16 11:39:38;;;;;;;0.70;0.70;;;;;;;15.48;58.81;102205.28;5065307;28;20028;-57
2023/10/16 11:42:04;;;;;;;1.05;0.90;;;;;;;15.48;58.71;102205.28;5066091;28;20479;-56
2023/10/16 11:44:32;;;;;;;1.10;1.10;;;;;;;15.48;58.86;102199.91;5065951;28;20039;-57
2023/10/16 11:47:01;;;;;;;0.95;0.82;;;;;;;15.49;58.70;102193.56;5065651;28;20110;-57
2023/10/16 11:49:31;;;;;;;0.88;0.73;;;;;;;15.50;59.04;102189.06;5066062;28;20107;-57
2023/10/16 11:54:59;;;;;;;0.80;0.73;;;;;;;15.52;58.66;102187.16;5058960;28;20060;-57
2023/10/16 11:57:29;;;;;;;0.60;0.60;;;;;;;15.50;58.83;102184.56;5066366;28;20122;-57
2023/10/16 11:59:55;;;;;;;0.80;0.80;;;;;;;15.50;58.77;102187.25;5066760;28;20062;-57
2023/10/16 12:02:23;;;;;;;0.52;0.52;;;;;;;15.50;58.81;102181.91;5066480;28;20435;-57
2023/10/16 12:04:49;;;;;;;1.05;0.93;;;;;;;15.51;58.83;102183.59;5064343;28;20114;-57
2023/10/16 12:07:15;;;;;;;1.63;0.80;;;;;;;15.52;58.72;102185.34;5065576;28;20485;-57
2023/10/16 12:09:52;;;;;;;0.60;0.60;;;;;;;15.51;58.84;102178.22;5065588;28;20115;-57
2023/10/16 12:12:20;;;;;;;0.85;0.80;;;;;;;15.52;58.89;102179.97;5071114;28;20048;-57
2023/10/16 12:14:48;;;;;;;0.80;0.80;;;;;;;15.51;58.87;102172.00;5068357;28;20033;-57
2023/10/16 12:17:15;;;;;;;0.55;0.55;;;;;;;15.52;59.06;102166.56;5072401;28;20023;-57
2023/10/16 12:19:41;;;;;;;0.70;0.70;;;;;;;15.53;58.98;102165.56;5069726;28;20044;-57
2023/10/16 12:22:08;;;;;;;1.10;0.77;;;;;;;15.54;58.87;102161.94;5070763;28;20020;-57
2023/10/16 12:24:34;;;;;;;0.77;0.70;;;;;;;15.54;58.98;102161.09;5070522;28;20024;-57
2023/10/16 12:27:01;;;;;;;0.85;0.80;;;;;;;15.54;59.06;102155.72;5067524;28;20070;-57
2023/10/16 12:29:27;;;;;;;0.60;0.60;;;;;;;15.55;59.10;102155.59;5070029;28;20060;-56
2023/10/16 12:31:54;;;;;;;0.60;0.60;;;;;;;15.54;59.15;102159.25;5071395;28;20052;-56
2023/10/16 12:34:22;;;;;;;0.73;0.73;;;;;;;15.55;59.10;102158.28;5075484;28;20039;-57
2023/10/16 12:36:49;;;;;;;0.70;0.70;;;;;;;15.55;58.98;102154.75;5077411;28;20136;-57
2023/10/16 12:39:24;;;;;;;0.73;0.60;;;;;;;15.55;59.20;102152.91;5081866;28;20016;-57
2023/10/16 12:41:52;;;;;;;0.73;0.73;;;;;;;15.56;59.03;102149.28;5076020;28;20123;-57
2023/10/16 12:44:18;;;;;;;0.57;0.57;;;;;;;15.57;59.18;102145.66;5074302;28;20486;-57
2023/10/16 12:46:43;;;;;;;0.73;0.73;;;;;;;15.57;59.11;102139.41;5069525;28;20020;-56
2023/10/16 12:49:08;;;;;;;1.10;0.60;;;;;;;15.57;58.98;102140.28;5069737;28;20553;-57
2023/10/16 12:51:34;;;;;;;1.30;0.63;;;;;;;15.57;59.03;102136.72;5071553;28;20058;-57
2023/10/16 12:54:03;;;;;;;0.60;0.60;;;;;;;15.57;58.96;102140.28;5068344;28;20078;-56
2023/10/16 12:56:32;;;;;;;0.80;0.80;;;;;;;15.59;59.04;102137.47;5067719;28;20057;-56
2023/10/16 12:59:03;;;;;;;0.68;0.68;;;;;;;15.59;59.13;102134.78;5072347;28;20386;-57
2023/10/16 13:01:29;;;;;;;0.82;0.80;;;;;;;15.60;59.21;102137.38;5071834;28;20028;-56
2023/10/16 13:03:59;;;;;;;0.90;0.77;;;;;;;15.60;59.36;102139.22;5071052;28;20036;-57
2023/10/16 13:06:28;;;;;;;1.08;0.70;;;;;;;15.60;59.40;102140.06;5073832;28;20402;-57
2023/10/16 13:08:55;;;;;;;0.77;0.77;;;;;;;15.60;59.13;102133.84;5068552;28;20044;-57
2023/10/16 13:11:20;;;;;;;1.55;0.73;;;;;;;15.61;59.55;102135.53;5069690;28;20039;-57
2023/10/16 13:13:45;;;;;;;0.75;0.60;;;;;;;15.61;59.18;102139.13;5068274;28;20040;-57
2023/10/16 13:16:11;;;;;;;0.70;0.70;;;;;;;15.62;59.19;102139.97;5067363;28;20032;-57
2023/10/16 13:18:36;;;;;;;0.63;0.63;;;;;;;15.61;59.32;102128.38;5066416;28;20048;-57
2023/10/16 13:21:07;;;;;;;0.60;0.60;;;;;;;15.62;59.25;102137.28;5068163;28;20044;-57
2023/10/16 13:23:36;;;;;;;0.50;0.50;;;;;;;15.63;59.17;102130.94;5063844;28;20036;-57
2023/10/16 13:26:03;;;;;;;0.82;0.70;;;;;;;15.62;59.33;102127.41;5071244;28;20391;-57
2023/10/16 13:28:30;;;;;;;1.00;0.70;;;;;;;15.63;59.16;102126.44;5064220;28;20081;-57
2023/10/16 13:30:55;;;;;;;0.57;0.57;;;;;;;15.64;59.36;102124.63;5066216;28;20040;-57
2023/10/16 13:33:21;;;;;;;0.80;0.70;;;;;;;15.63;59.26;102126.44;5067833;28;20112;-57
2023/10/16 13:35:46;;;;;;;0.73;0.70;;;;;;;15.64;59.36;102124.63;5069431;28;20028;-57
2023/10/16 13:38:12;;;;;;;0.85;0.80;;;;;;;15.64;59.26;102120.09;5066406;28;20078;-57